createdAt,value
2022-11-06T00:00:01.266Z,996.93
2022-11-06T00:00:11.524Z,996.98
2022-11-06T00:00:21.788Z,996.92
2022-11-06T00:00:32.047Z,996.95
2022-11-06T00:00:42.319Z,996.95
2022-11-06T00:00:52.583Z,996.98
2022-11-06T00:01:02.844Z,996.94
2022-11-06T00:01:13.107Z,996.89
2022-11-06T00:01:23.399Z,996.94
2022-11-06T00:01:33.675Z,996.94
2022-11-06T00:01:43.985Z,996.93
2022-11-06T00:01:54.299Z,996.92
2022-11-06T00:02:04.624Z,996.94
2022-11-06T00:02:20.233Z,996.94
2022-11-06T00:02:26.272Z,996.92
2022-11-06T00:02:35.674Z,996.93
2022-11-06T00:02:45.985Z,996.91
2022-11-06T00:02:56.345Z,996.93
2022-11-06T00:03:06.667Z,996.90
2022-11-06T00:03:17.005Z,996.88
2022-11-06T00:03:27.383Z,996.90
2022-11-06T00:03:37.654Z,996.87
2022-11-06T00:03:47.923Z,996.86
2022-11-06T00:03:58.178Z,996.87
2022-11-06T00:04:08.450Z,996.87
2022-11-06T00:04:18.705Z,996.89
2022-11-06T00:04:28.965Z,996.86
2022-11-06T00:04:39.228Z,996.86
2022-11-06T00:04:49.491Z,996.87
2022-11-06T00:04:59.751Z,996.86
2022-11-06T00:05:10.013Z,996.88
2022-11-06T00:05:20.277Z,996.85
2022-11-06T00:05:30.608Z,996.84
2022-11-06T00:05:40.835Z,996.88
2022-11-06T00:05:51.133Z,996.83
2022-11-06T00:06:01.380Z,996.86
2022-11-06T00:06:11.642Z,996.83
2022-11-06T00:06:21.947Z,996.85
2022-11-06T00:06:32.163Z,996.84
2022-11-06T00:06:42.427Z,996.85
2022-11-06T00:06:52.721Z,996.84
2022-11-06T00:07:02.958Z,996.83
2022-11-06T00:07:13.214Z,996.85
2022-11-06T00:07:23.476Z,996.82
2022-11-06T00:07:33.733Z,996.80
2022-11-06T00:07:44.004Z,996.81
2022-11-06T00:07:54.260Z,996.80
2022-11-06T00:08:04.516Z,996.81
2022-11-06T00:08:15.155Z,996.81
2022-11-06T00:08:25.158Z,996.80
2022-11-06T00:08:35.417Z,996.77
2022-11-06T00:08:45.678Z,996.82
2022-11-06T00:08:55.940Z,996.77
2022-11-06T00:09:06.229Z,996.81
2022-11-06T00:09:17.256Z,996.79
2022-11-06T00:09:26.869Z,996.80
2022-11-06T00:09:37.139Z,996.82
2022-11-06T00:09:47.397Z,996.79
2022-11-06T00:09:57.658Z,996.80
2022-11-06T00:10:07.926Z,996.78
2022-11-06T00:10:18.182Z,996.76
2022-11-06T00:10:28.441Z,996.85
2022-11-06T00:10:38.704Z,996.78
2022-11-06T00:10:48.969Z,996.80
2022-11-06T00:10:59.224Z,996.81
2022-11-06T00:11:09.488Z,996.82
2022-11-06T00:11:19.744Z,996.76
2022-11-06T00:11:29.997Z,996.79
2022-11-06T00:11:40.255Z,996.84
2022-11-06T00:11:50.519Z,996.79
2022-11-06T00:12:00.768Z,996.85
2022-11-06T00:12:10.997Z,996.82
2022-11-06T00:12:21.253Z,996.87
2022-11-06T00:12:31.506Z,996.81
2022-11-06T00:12:41.759Z,996.83
2022-11-06T00:12:51.997Z,996.83
2022-11-06T00:13:02.250Z,996.82
2022-11-06T00:13:12.499Z,996.85
2022-11-06T00:13:22.725Z,996.84
2022-11-06T00:13:32.960Z,996.84
2022-11-06T00:13:43.223Z,996.85
2022-11-06T00:13:53.476Z,996.87
2022-11-06T00:14:03.729Z,996.81
2022-11-06T00:14:13.976Z,996.85
2022-11-06T00:14:24.225Z,996.83
2022-11-06T00:14:34.460Z,996.86
2022-11-06T00:14:44.706Z,996.86
2022-11-06T00:14:54.940Z,996.85
2022-11-06T00:15:05.194Z,996.89
2022-11-06T00:15:15.429Z,996.86
2022-11-06T00:15:25.685Z,996.93
2022-11-06T00:15:35.934Z,996.87
2022-11-06T00:15:46.165Z,996.81
2022-11-06T00:15:56.403Z,996.89
2022-11-06T00:16:06.641Z,996.84
2022-11-06T00:16:16.893Z,996.86
2022-11-06T00:16:27.135Z,996.89
2022-11-06T00:16:37.375Z,996.84
2022-11-06T00:16:47.610Z,996.81
2022-11-06T00:16:57.844Z,996.86
2022-11-06T00:17:08.094Z,996.88
2022-11-06T00:17:18.336Z,996.83
2022-11-06T00:17:28.572Z,996.87
2022-11-06T00:17:38.823Z,996.87
2022-11-06T00:17:49.053Z,996.85
2022-11-06T00:17:59.281Z,996.83
2022-11-06T00:18:09.791Z,996.80
2022-11-06T00:18:19.884Z,996.85
2022-11-06T00:18:30.120Z,996.83
2022-11-06T00:18:40.405Z,996.84
2022-11-06T00:18:50.611Z,996.80
2022-11-06T00:19:00.876Z,996.80
2022-11-06T00:19:11.115Z,996.81
2022-11-06T00:19:21.322Z,996.83
2022-11-06T00:19:31.556Z,996.79
2022-11-06T00:19:41.837Z,996.78
2022-11-06T00:19:52.084Z,996.79
2022-11-06T00:20:02.302Z,996.73
2022-11-06T00:20:12.540Z,996.78
2022-11-06T00:20:22.776Z,996.76
2022-11-06T00:20:33.032Z,996.76
2022-11-06T00:20:43.273Z,996.75
2022-11-06T00:20:53.550Z,996.78
2022-11-06T00:21:03.792Z,996.77
2022-11-06T00:21:14.005Z,996.77
2022-11-06T00:21:24.242Z,996.74
2022-11-06T00:21:34.470Z,996.79
2022-11-06T00:21:44.713Z,996.78
2022-11-06T00:21:54.968Z,996.72
2022-11-06T00:22:05.187Z,996.73
2022-11-06T00:22:15.421Z,996.74
2022-11-06T00:22:25.654Z,996.73
2022-11-06T00:22:35.888Z,996.72
2022-11-06T00:22:46.168Z,996.74
2022-11-06T00:22:56.409Z,996.69
2022-11-06T00:23:06.611Z,996.69
2022-11-06T00:23:16.852Z,996.72
2022-11-06T00:23:27.086Z,996.67
2022-11-06T00:23:37.321Z,996.75
2022-11-06T00:23:47.561Z,996.71
2022-11-06T00:23:57.818Z,996.76
2022-11-06T00:24:08.028Z,996.73
2022-11-06T00:24:18.271Z,996.76
2022-11-06T00:24:28.552Z,996.72
2022-11-06T00:24:38.778Z,996.74
2022-11-06T00:24:49.006Z,996.78
2022-11-06T00:24:59.249Z,996.74
2022-11-06T00:25:09.613Z,996.74
2022-11-06T00:25:19.940Z,996.76
2022-11-06T00:25:30.166Z,996.77
2022-11-06T00:25:40.454Z,996.79
2022-11-06T00:25:50.789Z,996.76
2022-11-06T00:26:01.062Z,996.75
2022-11-06T00:26:11.303Z,996.76
2022-11-06T00:26:21.630Z,996.77
2022-11-06T00:26:31.868Z,996.80
2022-11-06T00:26:42.267Z,996.77
2022-11-06T00:26:55.255Z,996.78
2022-11-06T00:27:02.700Z,996.76
2022-11-06T00:27:12.943Z,996.75
2022-11-06T00:27:23.168Z,996.77
2022-11-06T00:27:33.400Z,996.79
2022-11-06T00:27:43.638Z,996.78
2022-11-06T00:27:53.873Z,996.78
2022-11-06T00:28:04.111Z,996.82
2022-11-06T00:28:14.767Z,996.78
2022-11-06T00:28:24.764Z,996.77
2022-11-06T00:28:34.997Z,996.79
2022-11-06T00:28:45.233Z,996.80
2022-11-06T00:28:55.474Z,996.78
2022-11-06T00:29:05.732Z,996.81
2022-11-06T00:29:15.957Z,996.82
2022-11-06T00:29:26.200Z,996.81
2022-11-06T00:29:36.428Z,996.82
2022-11-06T00:29:46.675Z,996.78
2022-11-06T00:29:56.900Z,996.82
2022-11-06T00:30:07.154Z,996.83
2022-11-06T00:30:17.408Z,996.82
2022-11-06T00:30:27.641Z,996.80
2022-11-06T00:30:37.862Z,996.81
2022-11-06T00:30:48.107Z,996.81
2022-11-06T00:30:58.348Z,996.84
2022-11-06T00:31:08.574Z,996.82
2022-11-06T00:31:18.836Z,996.84
2022-11-06T00:31:29.063Z,996.79
2022-11-06T00:31:39.294Z,996.83
2022-11-06T00:31:49.548Z,996.84
2022-11-06T00:31:59.779Z,996.80
2022-11-06T00:32:10.021Z,996.83
2022-11-06T00:32:20.256Z,996.82
2022-11-06T00:32:30.487Z,996.78
2022-11-06T00:32:40.726Z,996.81
2022-11-06T00:32:50.966Z,996.82
2022-11-06T00:33:01.199Z,996.83
2022-11-06T00:33:11.443Z,996.82
2022-11-06T00:33:21.667Z,996.78
2022-11-06T00:33:31.909Z,996.83
2022-11-06T00:33:42.150Z,996.81
2022-11-06T00:33:52.382Z,996.82
2022-11-06T00:34:02.625Z,996.79
2022-11-06T00:34:12.861Z,996.84
2022-11-06T00:34:23.099Z,996.78
2022-11-06T00:34:33.334Z,996.80
2022-11-06T00:34:43.565Z,996.82
2022-11-06T00:34:53.799Z,996.83
2022-11-06T00:35:04.041Z,996.81
2022-11-06T00:35:14.291Z,996.77
2022-11-06T00:35:24.553Z,996.78
2022-11-06T00:35:34.782Z,996.81
2022-11-06T00:35:45.017Z,996.77
2022-11-06T00:35:55.253Z,996.80
2022-11-06T00:36:05.490Z,996.78
2022-11-06T00:36:15.735Z,996.81
2022-11-06T00:36:25.979Z,996.78
2022-11-06T00:36:36.198Z,996.79
2022-11-06T00:36:46.442Z,996.79
2022-11-06T00:36:56.673Z,996.83
2022-11-06T00:37:06.931Z,996.79
2022-11-06T00:37:17.194Z,996.76
2022-11-06T00:37:27.451Z,996.82
2022-11-06T00:37:37.670Z,996.79
2022-11-06T00:37:47.930Z,996.81
2022-11-06T00:37:58.155Z,996.80
2022-11-06T00:38:08.391Z,996.85
2022-11-06T00:38:18.650Z,996.81
2022-11-06T00:38:28.879Z,996.79
2022-11-06T00:38:39.121Z,996.84
2022-11-06T00:38:49.345Z,996.82
2022-11-06T00:38:59.580Z,996.80
2022-11-06T00:39:09.820Z,996.80
2022-11-06T00:39:20.054Z,996.80
2022-11-06T00:39:31.256Z,996.84
2022-11-06T00:39:40.634Z,996.78
2022-11-06T00:39:50.876Z,996.85
2022-11-06T00:40:01.112Z,996.82
2022-11-06T00:40:11.358Z,996.79
2022-11-06T00:40:21.608Z,996.78
2022-11-06T00:40:31.855Z,996.77
2022-11-06T00:40:42.088Z,996.77
2022-11-06T00:40:52.328Z,996.78
2022-11-06T00:41:02.566Z,996.78
2022-11-06T00:41:12.803Z,996.78
2022-11-06T00:41:23.029Z,996.74
2022-11-06T00:41:33.288Z,996.82
2022-11-06T00:41:43.506Z,996.79
2022-11-06T00:41:53.757Z,996.77
2022-11-06T00:42:03.985Z,996.78
2022-11-06T00:42:14.223Z,996.81
2022-11-06T00:42:24.479Z,996.79
2022-11-06T00:42:34.696Z,996.76
2022-11-06T00:42:44.937Z,996.73
2022-11-06T00:42:55.173Z,996.75
2022-11-06T00:43:05.413Z,996.76
2022-11-06T00:43:15.656Z,996.79
2022-11-06T00:43:25.916Z,996.78
2022-11-06T00:43:36.143Z,996.74
2022-11-06T00:43:46.392Z,996.73
2022-11-06T00:43:56.610Z,996.76
2022-11-06T00:44:06.847Z,996.74
2022-11-06T00:44:17.084Z,996.72
2022-11-06T00:44:27.320Z,996.70
2022-11-06T00:44:37.561Z,996.76
2022-11-06T00:44:47.803Z,996.78
2022-11-06T00:44:58.069Z,996.74
2022-11-06T00:45:08.308Z,996.74
2022-11-06T00:45:18.553Z,996.77
2022-11-06T00:45:28.797Z,996.75
2022-11-06T00:45:39.025Z,996.72
2022-11-06T00:45:49.265Z,996.75
2022-11-06T00:45:59.509Z,996.73
2022-11-06T00:46:09.751Z,996.73
2022-11-06T00:46:19.980Z,996.74
2022-11-06T00:46:30.214Z,996.73
2022-11-06T00:46:40.452Z,996.75
2022-11-06T00:46:50.678Z,996.73
2022-11-06T00:47:00.913Z,996.75
2022-11-06T00:47:11.168Z,996.74
2022-11-06T00:47:21.401Z,996.72
2022-11-06T00:47:31.630Z,996.72
2022-11-06T00:47:41.867Z,996.71
2022-11-06T00:47:52.106Z,996.73
2022-11-06T00:48:02.342Z,996.70
2022-11-06T00:48:12.876Z,996.72
2022-11-06T00:48:22.795Z,996.69
2022-11-06T00:48:33.034Z,996.75
2022-11-06T00:48:43.271Z,996.70
2022-11-06T00:48:53.513Z,996.73
2022-11-06T00:49:03.744Z,996.71
2022-11-06T00:49:13.983Z,996.71
2022-11-06T00:49:24.215Z,996.73
2022-11-06T00:49:34.448Z,996.73
2022-11-06T00:49:44.683Z,996.71
2022-11-06T00:49:54.925Z,996.66
2022-11-06T00:50:05.157Z,996.71
2022-11-06T00:50:15.423Z,996.72
2022-11-06T00:50:25.687Z,996.70
2022-11-06T00:50:35.893Z,996.69
2022-11-06T00:50:46.136Z,996.69
2022-11-06T00:50:56.365Z,996.71
2022-11-06T00:51:06.607Z,996.74
2022-11-06T00:51:16.853Z,996.69
2022-11-06T00:51:27.085Z,996.73
2022-11-06T00:51:37.320Z,996.73
2022-11-06T00:51:47.562Z,996.76
2022-11-06T00:51:57.797Z,996.75
2022-11-06T00:52:08.036Z,996.76
2022-11-06T00:52:18.290Z,996.75
2022-11-06T00:52:28.519Z,996.73
2022-11-06T00:52:38.812Z,996.76
2022-11-06T00:52:49.012Z,996.80
2022-11-06T00:52:59.241Z,996.75
2022-11-06T00:53:09.477Z,996.75
2022-11-06T00:53:19.721Z,996.78
2022-11-06T00:53:29.974Z,996.79
2022-11-06T00:53:40.208Z,996.78
2022-11-06T00:53:50.442Z,996.80
2022-11-06T00:54:00.688Z,996.76
2022-11-06T00:54:10.924Z,996.76
2022-11-06T00:54:21.171Z,996.80
2022-11-06T00:54:31.405Z,996.78
2022-11-06T00:54:41.665Z,996.78
2022-11-06T00:54:51.895Z,996.75
2022-11-06T00:55:02.117Z,996.76
2022-11-06T00:55:12.363Z,996.80
2022-11-06T00:55:22.635Z,996.77
2022-11-06T00:55:32.864Z,996.77
2022-11-06T00:55:43.101Z,996.78
2022-11-06T00:55:53.330Z,996.78
2022-11-06T00:56:03.567Z,996.81
2022-11-06T00:56:13.806Z,996.77
2022-11-06T00:56:24.040Z,996.75
2022-11-06T00:56:34.332Z,996.79
2022-11-06T00:56:44.622Z,996.79
2022-11-06T00:56:54.863Z,996.79
2022-11-06T00:57:05.096Z,996.78
2022-11-06T00:57:15.353Z,996.82
2022-11-06T00:57:25.596Z,996.79
2022-11-06T00:57:35.831Z,996.79
2022-11-06T00:57:46.064Z,996.80
2022-11-06T00:57:56.301Z,996.78
2022-11-06T00:58:06.529Z,996.80
2022-11-06T00:58:16.770Z,996.78
2022-11-06T00:58:27.024Z,996.79
2022-11-06T00:58:37.256Z,996.80
2022-11-06T00:58:47.488Z,996.81
2022-11-06T00:58:57.734Z,996.80
2022-11-06T00:59:07.972Z,996.77
2022-11-06T00:59:18.211Z,996.79
2022-11-06T00:59:28.448Z,996.89
2022-11-06T00:59:38.688Z,996.82
2022-11-06T00:59:48.937Z,996.79
2022-11-06T00:59:59.176Z,996.88
2022-11-06T01:00:09.426Z,996.86
2022-11-06T01:00:19.681Z,996.87
2022-11-06T01:00:29.921Z,996.89
2022-11-06T01:00:40.154Z,996.88
2022-11-06T01:00:50.379Z,996.86
2022-11-06T01:01:00.617Z,996.87
2022-11-06T01:01:10.861Z,996.97
2022-11-06T01:01:21.328Z,996.87
2022-11-06T01:01:31.483Z,996.90
2022-11-06T01:01:41.896Z,996.84
2022-11-06T01:01:52.277Z,996.87
2022-11-06T01:02:02.576Z,996.87
2022-11-06T01:02:12.817Z,996.93
2022-11-06T01:02:23.099Z,996.88
2022-11-06T01:02:33.508Z,996.85
2022-11-06T01:02:43.679Z,996.90
2022-11-06T01:02:53.893Z,996.81
2022-11-06T01:03:04.107Z,996.80
2022-11-06T01:03:14.222Z,996.84
2022-11-06T01:03:24.472Z,996.80
2022-11-06T01:03:34.723Z,996.75
2022-11-06T01:03:44.967Z,996.77
2022-11-06T01:03:55.192Z,996.80
2022-11-06T01:04:05.430Z,996.76
2022-11-06T01:04:15.659Z,996.78
2022-11-06T01:04:25.923Z,996.78
2022-11-06T01:04:36.128Z,996.77
2022-11-06T01:04:46.383Z,996.77
2022-11-06T01:04:56.631Z,996.76
2022-11-06T01:05:06.852Z,996.82
2022-11-06T01:05:17.099Z,996.75
2022-11-06T01:05:27.344Z,996.75
2022-11-06T01:05:37.574Z,996.76
2022-11-06T01:05:47.805Z,996.78
2022-11-06T01:05:58.044Z,996.75
2022-11-06T01:06:08.282Z,996.77
2022-11-06T01:06:18.525Z,996.77
2022-11-06T01:06:28.750Z,996.73
2022-11-06T01:06:38.992Z,996.78
2022-11-06T01:06:49.232Z,996.84
2022-11-06T01:06:59.471Z,996.75
2022-11-06T01:07:09.717Z,996.72
2022-11-06T01:07:19.967Z,996.73
2022-11-06T01:07:30.192Z,996.73
2022-11-06T01:07:40.422Z,996.68
2022-11-06T01:07:50.675Z,996.75
2022-11-06T01:08:00.896Z,996.75
2022-11-06T01:08:11.580Z,996.76
2022-11-06T01:08:21.506Z,996.79
2022-11-06T01:08:31.753Z,996.76
2022-11-06T01:08:41.992Z,996.76
2022-11-06T01:08:52.220Z,996.74
2022-11-06T01:09:02.475Z,996.75
2022-11-06T01:09:12.724Z,996.73
2022-11-06T01:09:22.970Z,996.76
2022-11-06T01:09:33.201Z,996.75
2022-11-06T01:09:43.462Z,996.74
2022-11-06T01:09:53.690Z,996.75
2022-11-06T01:10:03.925Z,996.76
2022-11-06T01:10:14.161Z,996.77
2022-11-06T01:10:24.399Z,996.72
2022-11-06T01:10:34.639Z,996.78
2022-11-06T01:10:44.887Z,996.74
2022-11-06T01:10:55.114Z,996.73
2022-11-06T01:11:05.342Z,996.73
2022-11-06T01:11:15.577Z,996.73
2022-11-06T01:11:25.854Z,996.76
2022-11-06T01:11:59.210Z,996.75
2022-11-06T01:12:11.876Z,996.71
2022-11-06T01:12:13.389Z,996.73
2022-11-06T01:12:14.435Z,996.74
2022-11-06T01:12:18.510Z,996.77
2022-11-06T01:12:27.876Z,996.69
2022-11-06T01:12:38.114Z,996.72
2022-11-06T01:12:48.352Z,996.73
2022-11-06T01:12:58.612Z,996.70
2022-11-06T01:13:08.841Z,996.73
2022-11-06T01:13:19.075Z,996.73
2022-11-06T01:13:29.310Z,996.72
2022-11-06T01:13:39.550Z,996.73
2022-11-06T01:13:49.788Z,996.67
2022-11-06T01:14:00.022Z,996.67
2022-11-06T01:14:10.262Z,996.72
2022-11-06T01:14:20.495Z,996.70
2022-11-06T01:14:30.730Z,996.71
2022-11-06T01:14:40.977Z,996.71
2022-11-06T01:14:51.210Z,996.71
2022-11-06T01:15:01.457Z,996.69
2022-11-06T01:15:11.697Z,996.70
2022-11-06T01:15:21.922Z,996.67
2022-11-06T01:15:32.156Z,996.70
2022-11-06T01:15:42.396Z,996.72
2022-11-06T01:15:52.634Z,996.69
2022-11-06T01:16:02.874Z,996.73
2022-11-06T01:16:13.109Z,996.65
2022-11-06T01:16:23.354Z,996.67
2022-11-06T01:16:33.596Z,996.70
2022-11-06T01:16:43.827Z,996.63
2022-11-06T01:16:54.071Z,996.65
2022-11-06T01:17:04.313Z,996.67
2022-11-06T01:17:14.538Z,996.68
2022-11-06T01:17:24.780Z,996.64
2022-11-06T01:17:35.023Z,996.67
2022-11-06T01:17:45.250Z,996.67
2022-11-06T01:17:55.505Z,996.65
2022-11-06T01:18:05.755Z,996.64
2022-11-06T01:18:16.068Z,996.64
2022-11-06T01:18:26.265Z,996.61
2022-11-06T01:18:36.508Z,996.61
2022-11-06T01:18:46.740Z,996.62
2022-11-06T01:18:57.004Z,996.61
2022-11-06T01:19:07.196Z,996.63
2022-11-06T01:19:17.437Z,996.64
2022-11-06T01:19:27.668Z,996.62
2022-11-06T01:19:38.028Z,996.62
2022-11-06T01:19:48.255Z,996.60
2022-11-06T01:19:58.480Z,996.65
2022-11-06T01:20:08.716Z,996.61
2022-11-06T01:20:18.965Z,996.63
2022-11-06T01:20:29.194Z,996.65
2022-11-06T01:20:39.428Z,996.60
2022-11-06T01:20:49.674Z,996.61
2022-11-06T01:20:59.940Z,996.62
2022-11-06T01:21:10.168Z,996.63
2022-11-06T01:21:20.401Z,996.62
2022-11-06T01:21:30.653Z,996.59
2022-11-06T01:21:40.890Z,996.60
2022-11-06T01:21:51.122Z,996.61
2022-11-06T01:22:01.371Z,996.62
2022-11-06T01:22:11.616Z,996.58
2022-11-06T01:22:21.865Z,996.61
2022-11-06T01:22:32.108Z,996.61
2022-11-06T01:22:42.325Z,996.58
2022-11-06T01:22:52.572Z,996.61
2022-11-06T01:23:02.804Z,996.63
2022-11-06T01:23:13.042Z,996.55
2022-11-06T01:23:23.306Z,996.63
2022-11-06T01:23:33.518Z,996.59
2022-11-06T01:23:43.761Z,996.60
2022-11-06T01:23:53.994Z,996.58
2022-11-06T01:24:04.354Z,996.61
2022-11-06T01:24:14.672Z,996.63
2022-11-06T01:24:25.063Z,996.58
2022-11-06T01:24:35.460Z,996.60
2022-11-06T01:24:45.766Z,996.61
2022-11-06T01:24:56.097Z,996.58
2022-11-06T01:25:06.357Z,996.59
2022-11-06T01:25:16.592Z,996.64
2022-11-06T01:25:26.833Z,996.60
2022-11-06T01:25:37.068Z,996.63
2022-11-06T01:25:47.308Z,996.62
2022-11-06T01:25:57.545Z,996.57
2022-11-06T01:26:07.770Z,996.58
2022-11-06T01:26:33.848Z,996.59
2022-11-06T01:26:38.441Z,996.61
2022-11-06T01:26:53.302Z,996.61
2022-11-06T01:27:19.938Z,996.59
2022-11-06T01:27:26.320Z,996.62
2022-11-06T01:27:27.299Z,996.58
2022-11-06T01:27:31.483Z,996.52
2022-11-06T01:27:40.851Z,996.58
2022-11-06T01:27:51.083Z,996.57
2022-11-06T01:28:01.323Z,996.54
2022-11-06T01:28:11.865Z,996.57
2022-11-06T01:28:21.888Z,996.56
2022-11-06T01:28:32.113Z,996.58
2022-11-06T01:28:42.355Z,996.54
2022-11-06T01:28:52.595Z,996.55
2022-11-06T01:29:02.827Z,996.55
2022-11-06T01:29:13.077Z,996.55
2022-11-06T01:29:23.322Z,996.61
2022-11-06T01:29:33.563Z,996.53
2022-11-06T01:29:43.880Z,996.51
2022-11-06T01:29:54.095Z,996.54
2022-11-06T01:30:04.327Z,996.54
2022-11-06T01:30:14.586Z,996.57
2022-11-06T01:30:24.815Z,996.58
2022-11-06T01:30:35.061Z,996.55
2022-11-06T01:30:45.294Z,996.56
2022-11-06T01:30:55.548Z,996.58
2022-11-06T01:31:05.775Z,996.58
2022-11-06T01:31:16.014Z,996.56
2022-11-06T01:31:26.246Z,996.60
2022-11-06T01:31:36.543Z,996.54
2022-11-06T01:31:46.958Z,996.59
2022-11-06T01:31:57.166Z,996.63
2022-11-06T01:32:08.370Z,996.59
2022-11-06T01:32:17.876Z,996.57
2022-11-06T01:32:28.067Z,996.59
2022-11-06T01:32:38.298Z,996.63
2022-11-06T01:32:48.536Z,996.60
2022-11-06T01:32:58.776Z,996.59
2022-11-06T01:33:09.008Z,996.58
2022-11-06T01:33:19.244Z,996.61
2022-11-06T01:33:29.485Z,996.59
2022-11-06T01:33:39.724Z,996.59
2022-11-06T01:33:49.970Z,996.62
2022-11-06T01:34:00.213Z,996.55
2022-11-06T01:34:10.459Z,996.61
2022-11-06T01:34:20.676Z,996.62
2022-11-06T01:34:30.930Z,996.60
2022-11-06T01:34:41.156Z,996.59
2022-11-06T01:34:51.392Z,996.62
2022-11-06T01:35:01.625Z,996.63
2022-11-06T01:35:11.869Z,996.56
2022-11-06T01:35:22.097Z,996.55
2022-11-06T01:35:32.343Z,996.59
2022-11-06T01:35:42.600Z,996.53
2022-11-06T01:35:52.813Z,996.54
2022-11-06T01:36:03.052Z,996.60
2022-11-06T01:36:13.294Z,996.58
2022-11-06T01:36:23.535Z,996.61
2022-11-06T01:36:33.771Z,996.58
2022-11-06T01:36:44.009Z,996.61
2022-11-06T01:36:54.241Z,996.61
2022-11-06T01:37:04.484Z,996.60
2022-11-06T01:37:15.229Z,996.60
2022-11-06T01:37:25.056Z,996.55
2022-11-06T01:37:35.304Z,996.60
2022-11-06T01:37:45.539Z,996.52
2022-11-06T01:37:55.759Z,996.57
2022-11-06T01:38:06.006Z,996.60
2022-11-06T01:38:16.241Z,996.56
2022-11-06T01:38:26.474Z,996.52
2022-11-06T01:38:36.706Z,996.52
2022-11-06T01:38:46.961Z,996.45
2022-11-06T01:38:57.207Z,996.55
2022-11-06T01:39:07.437Z,996.47
2022-11-06T01:39:17.678Z,996.50
2022-11-06T01:39:27.911Z,996.52
2022-11-06T01:39:38.150Z,996.49
2022-11-06T01:39:48.386Z,996.50
2022-11-06T01:39:58.634Z,996.52
2022-11-06T01:40:08.882Z,996.48
2022-11-06T01:40:19.098Z,996.57
2022-11-06T01:40:29.346Z,996.48
2022-11-06T01:40:39.573Z,996.48
2022-11-06T01:40:49.813Z,996.55
2022-11-06T01:41:00.046Z,996.50
2022-11-06T01:41:10.286Z,996.53
2022-11-06T01:41:20.531Z,996.52
2022-11-06T01:41:30.771Z,996.55
2022-11-06T01:41:41.004Z,996.55
2022-11-06T01:41:51.242Z,996.56
2022-11-06T01:42:01.482Z,996.57
2022-11-06T01:42:11.724Z,996.56
2022-11-06T01:42:21.965Z,996.55
2022-11-06T01:42:32.209Z,996.55
2022-11-06T01:42:42.444Z,996.54
2022-11-06T01:42:52.678Z,996.60
2022-11-06T01:43:02.913Z,996.59
2022-11-06T01:43:13.151Z,996.51
2022-11-06T01:43:23.383Z,996.55
2022-11-06T01:43:33.617Z,996.55
2022-11-06T01:43:43.876Z,996.55
2022-11-06T01:43:54.116Z,996.57
2022-11-06T01:44:09.378Z,996.53
2022-11-06T01:44:15.761Z,996.56
2022-11-06T01:44:25.142Z,996.57
2022-11-06T01:44:35.391Z,996.57
2022-11-06T01:44:45.635Z,996.60
2022-11-06T01:44:55.850Z,996.58
2022-11-06T01:45:06.087Z,996.59
2022-11-06T01:45:16.324Z,996.60
2022-11-06T01:45:26.574Z,996.60
2022-11-06T01:45:36.802Z,996.59
2022-11-06T01:45:47.038Z,996.61
2022-11-06T01:45:57.294Z,996.61
2022-11-06T01:46:07.553Z,996.59
2022-11-06T01:46:17.807Z,996.57
2022-11-06T01:46:28.015Z,996.61
2022-11-06T01:46:38.252Z,996.62
2022-11-06T01:46:48.495Z,996.59
2022-11-06T01:46:58.749Z,996.59
2022-11-06T01:47:08.983Z,996.57
2022-11-06T01:47:19.211Z,996.58
2022-11-06T01:47:29.454Z,996.54
2022-11-06T01:47:39.689Z,996.56
2022-11-06T01:47:49.923Z,996.59
2022-11-06T01:48:00.180Z,996.59
2022-11-06T01:48:10.759Z,996.57
2022-11-06T01:48:20.794Z,996.60
2022-11-06T01:48:31.017Z,996.61
2022-11-06T01:48:41.257Z,996.58
2022-11-06T01:48:51.536Z,996.55
2022-11-06T01:49:01.741Z,996.57
2022-11-06T01:49:11.987Z,996.53
2022-11-06T01:49:22.227Z,996.56
2022-11-06T01:49:32.470Z,996.58
2022-11-06T01:49:42.706Z,996.55
2022-11-06T01:49:52.933Z,996.52
2022-11-06T01:50:03.200Z,996.51
2022-11-06T01:50:13.420Z,996.53
2022-11-06T01:50:23.674Z,996.56
2022-11-06T01:50:33.920Z,996.55
2022-11-06T01:50:44.160Z,996.53
2022-11-06T01:50:54.438Z,996.50
2022-11-06T01:51:04.665Z,996.51
2022-11-06T01:51:14.889Z,996.53
2022-11-06T01:51:25.133Z,996.52
2022-11-06T01:51:35.370Z,996.52
2022-11-06T01:51:45.602Z,996.51
2022-11-06T01:51:55.854Z,996.54
2022-11-06T01:52:06.078Z,996.54
2022-11-06T01:52:16.318Z,996.51
2022-11-06T01:52:26.551Z,996.53
2022-11-06T01:52:36.811Z,996.51
2022-11-06T01:52:47.106Z,996.50
2022-11-06T01:52:57.341Z,996.55
2022-11-06T01:53:07.545Z,996.50
2022-11-06T01:53:17.778Z,996.50
2022-11-06T01:53:28.024Z,996.46
2022-11-06T01:53:38.263Z,996.51
2022-11-06T01:53:48.505Z,996.48
2022-11-06T01:53:58.741Z,996.49
2022-11-06T01:54:09.008Z,996.47
2022-11-06T01:54:19.249Z,996.48
2022-11-06T01:54:29.474Z,996.51
2022-11-06T01:54:39.714Z,996.46
2022-11-06T01:54:49.944Z,996.48
2022-11-06T01:55:00.186Z,996.47
2022-11-06T01:55:10.430Z,996.52
2022-11-06T01:55:20.668Z,996.47
2022-11-06T01:55:30.905Z,996.47
2022-11-06T01:55:41.182Z,996.53
2022-11-06T01:55:51.398Z,996.44
2022-11-06T01:56:01.643Z,996.50
2022-11-06T01:56:11.880Z,996.52
2022-11-06T01:56:22.120Z,996.52
2022-11-06T01:56:32.356Z,996.48
2022-11-06T01:56:42.591Z,996.45
2022-11-06T01:56:52.841Z,996.49
2022-11-06T01:57:03.069Z,996.47
2022-11-06T01:57:13.314Z,996.49
2022-11-06T01:57:23.563Z,996.49
2022-11-06T01:57:33.799Z,996.44
2022-11-06T01:57:44.033Z,996.44
2022-11-06T01:57:54.270Z,996.39
2022-11-06T01:58:04.513Z,996.46
2022-11-06T01:58:15.070Z,996.43
2022-11-06T01:58:25.100Z,996.44
2022-11-06T01:58:35.345Z,996.41
2022-11-06T01:58:45.598Z,996.45
2022-11-06T01:58:55.853Z,996.44
2022-11-06T01:59:06.077Z,996.45
2022-11-06T01:59:16.316Z,996.46
2022-11-06T01:59:26.563Z,996.47
2022-11-06T01:59:36.784Z,996.41
2022-11-06T01:59:47.028Z,996.43
2022-11-06T01:59:57.273Z,996.40
2022-11-06T02:00:07.510Z,996.40
2022-11-06T02:00:17.785Z,996.42
2022-11-06T02:00:28.015Z,996.42
2022-11-06T02:00:38.234Z,996.42
2022-11-06T02:00:48.489Z,996.37
2022-11-06T02:00:58.724Z,996.40
2022-11-06T02:01:08.964Z,996.37
2022-11-06T02:01:19.405Z,996.37
2022-11-06T02:01:29.591Z,996.33
2022-11-06T02:01:39.967Z,996.36
2022-11-06T02:01:50.509Z,996.35
2022-11-06T02:02:00.771Z,996.35
2022-11-06T02:02:10.967Z,996.37
2022-11-06T02:02:21.391Z,996.41
2022-11-06T02:02:31.532Z,996.42
2022-11-06T02:02:41.956Z,996.33
2022-11-06T02:02:52.414Z,996.34
2022-11-06T02:03:02.550Z,996.37
2022-11-06T02:03:12.823Z,996.40
2022-11-06T02:03:22.862Z,996.39
2022-11-06T02:03:33.098Z,996.31
2022-11-06T02:03:43.335Z,996.35
2022-11-06T02:03:53.575Z,996.35
2022-11-06T02:04:03.839Z,996.39
2022-11-06T02:04:14.068Z,996.37
2022-11-06T02:04:24.324Z,996.33
2022-11-06T02:04:34.561Z,996.38
2022-11-06T02:04:44.812Z,996.38
2022-11-06T02:04:55.035Z,996.38
2022-11-06T02:05:05.279Z,996.38
2022-11-06T02:05:15.534Z,996.37
2022-11-06T02:05:25.766Z,996.34
2022-11-06T02:05:35.998Z,996.34
2022-11-06T02:05:46.231Z,996.40
2022-11-06T02:05:56.468Z,996.34
2022-11-06T02:06:06.699Z,996.35
2022-11-06T02:06:16.942Z,996.35
2022-11-06T02:06:27.175Z,996.33
2022-11-06T02:06:37.424Z,996.38
2022-11-06T02:06:47.686Z,996.31
2022-11-06T02:06:57.899Z,996.28
2022-11-06T02:07:08.151Z,996.34
2022-11-06T02:07:18.388Z,996.34
2022-11-06T02:07:28.641Z,996.32
2022-11-06T02:07:38.867Z,996.30
2022-11-06T02:07:49.131Z,996.34
2022-11-06T02:07:59.342Z,996.37